sensor_id;sensor_type;location;lat;lon;timestamp;temperature;humidity
20568;DHT22;10442;49.932;11.592;2022-12-29T00:01:01;8.70;70.10
20568;DHT22;10442;49.932;11.592;2022-12-29T00:03:29;8.70;70.30
20568;DHT22;10442;49.932;11.592;2022-12-29T00:05:57;8.70;70.30
20568;DHT22;10442;49.932;11.592;2022-12-29T00:08:25;8.70;70.40
20568;DHT22;10442;49.932;11.592;2022-12-29T00:11:12;8.80;70.50
20568;DHT22;10442;49.932;11.592;2022-12-29T00:13:40;8.70;70.50
20568;DHT22;10442;49.932;11.592;2022-12-29T00:16:28;8.80;70.70
20568;DHT22;10442;49.932;11.592;2022-12-29T00:18:55;8.80;70.70
20568;DHT22;10442;49.932;11.592;2022-12-29T00:21:24;8.80;70.90
20568;DHT22;10442;49.932;11.592;2022-12-29T00:24:21;8.90;71.20
20568;DHT22;10442;49.932;11.592;2022-12-29T00:27:09;8.90;71.30
20568;DHT22;10442;49.932;11.592;2022-12-29T00:29:57;9.00;71.30
20568;DHT22;10442;49.932;11.592;2022-12-29T00:32:44;9.00;71.40
20568;DHT22;10442;49.932;11.592;2022-12-29T00:35:38;9.10;71.40
20568;DHT22;10442;49.932;11.592;2022-12-29T00:38:08;9.10;71.40
20568;DHT22;10442;49.932;11.592;2022-12-29T00:40:54;9.10;71.30
20568;DHT22;10442;49.932;11.592;2022-12-29T00:43:40;9.10;71.30
20568;DHT22;10442;49.932;11.592;2022-12-29T00:46:27;9.20;71.30
20568;DHT22;10442;49.932;11.592;2022-12-29T00:48:56;9.20;71.30
20568;DHT22;10442;49.932;11.592;2022-12-29T00:51:44;9.20;71.30
20568;DHT22;10442;49.932;11.592;2022-12-29T00:54:12;9.30;71.20
20568;DHT22;10442;49.932;11.592;2022-12-29T00:56:40;9.30;71.30
20568;DHT22;10442;49.932;11.592;2022-12-29T00:59:09;9.30;71.10
20568;DHT22;10442;49.932;11.592;2022-12-29T01:01:38;9.30;71.00
20568;DHT22;10442;49.932;11.592;2022-12-29T01:04:06;9.30;70.90
20568;DHT22;10442;49.932;11.592;2022-12-29T01:06:35;9.30;70.90
20568;DHT22;10442;49.932;11.592;2022-12-29T01:09:04;9.30;70.80
20568;DHT22;10442;49.932;11.592;2022-12-29T01:11:50;9.30;70.70
20568;DHT22;10442;49.932;11.592;2022-12-29T01:14:19;9.20;70.60
20568;DHT22;10442;49.932;11.592;2022-12-29T01:16:47;9.20;70.60
20568;DHT22;10442;49.932;11.592;2022-12-29T01:19:17;9.30;70.80
20568;DHT22;10442;49.932;11.592;2022-12-29T01:21:46;9.20;70.70
20568;DHT22;10442;49.932;11.592;2022-12-29T01:24:15;9.30;70.80
20568;DHT22;10442;49.932;11.592;2022-12-29T01:26:43;9.30;70.80
20568;DHT22;10442;49.932;11.592;2022-12-29T01:29:10;9.30;70.80
20568;DHT22;10442;49.932;11.592;2022-12-29T01:31:38;9.30;70.80
20568;DHT22;10442;49.932;11.592;2022-12-29T01:34:06;9.30;70.80
20568;DHT22;10442;49.932;11.592;2022-12-29T01:36:34;9.40;70.80
20568;DHT22;10442;49.932;11.592;2022-12-29T01:39:01;9.40;70.80
20568;DHT22;10442;49.932;11.592;2022-12-29T01:41:29;9.50;70.80
20568;DHT22;10442;49.932;11.592;2022-12-29T01:43:58;9.50;70.70
20568;DHT22;10442;49.932;11.592;2022-12-29T01:46:31;9.60;70.70
20568;DHT22;10442;49.932;11.592;2022-12-29T01:49:16;9.60;70.60
20568;DHT22;10442;49.932;11.592;2022-12-29T01:51:52;9.60;70.40
20568;DHT22;10442;49.932;11.592;2022-12-29T01:54:41;9.70;70.40
20568;DHT22;10442;49.932;11.592;2022-12-29T01:57:15;9.80;70.50
20568;DHT22;10442;49.932;11.592;2022-12-29T01:59:51;9.80;70.50
20568;DHT22;10442;49.932;11.592;2022-12-29T02:02:20;9.80;70.50
20568;DHT22;10442;49.932;11.592;2022-12-29T02:04:48;9.90;70.30
20568;DHT22;10442;49.932;11.592;2022-12-29T02:07:20;9.90;70.30
20568;DHT22;10442;49.932;11.592;2022-12-29T02:09:50;10.00;70.40
20568;DHT22;10442;49.932;11.592;2022-12-29T02:12:20;10.00;70.30
20568;DHT22;10442;49.932;11.592;2022-12-29T02:14:51;10.10;70.40
20568;DHT22;10442;49.932;11.592;2022-12-29T02:17:40;10.10;70.00
20568;DHT22;10442;49.932;11.592;2022-12-29T02:29:04;10.30;70.10
20568;DHT22;10442;49.932;11.592;2022-12-29T02:32:03;10.30;69.80
20568;DHT22;10442;49.932;11.592;2022-12-29T02:35:05;10.40;69.70
20568;DHT22;10442;49.932;11.592;2022-12-29T02:41:03;10.40;69.60
20568;DHT22;10442;49.932;11.592;2022-12-29T02:49:25;10.50;69.10
20568;DHT22;10442;49.932;11.592;2022-12-29T02:52:18;10.60;69.00
20568;DHT22;10442;49.932;11.592;2022-12-29T02:54:48;10.60;68.90
20568;DHT22;10442;49.932;11.592;2022-12-29T02:59:53;10.70;68.80
20568;DHT22;10442;49.932;11.592;2022-12-29T03:15:02;11.00;68.40
20568;DHT22;10442;49.932;11.592;2022-12-29T03:18:01;11.00;68.40
20568;DHT22;10442;49.932;11.592;2022-12-29T03:20:39;11.00;68.00
20568;DHT22;10442;49.932;11.592;2022-12-29T03:23:10;11.10;68.20
20568;DHT22;10442;49.932;11.592;2022-12-29T03:25:58;11.10;68.30
20568;DHT22;10442;49.932;11.592;2022-12-29T03:28:31;11.10;68.00
20568;DHT22;10442;49.932;11.592;2022-12-29T03:31:00;11.10;68.20
20568;DHT22;10442;49.932;11.592;2022-12-29T03:33:30;11.20;68.10
20568;DHT22;10442;49.932;11.592;2022-12-29T03:36:03;11.20;67.90
20568;DHT22;10442;49.932;11.592;2022-12-29T03:38:38;11.20;67.80
20568;DHT22;10442;49.932;11.592;2022-12-29T03:41:17;11.20;67.90
20568;DHT22;10442;49.932;11.592;2022-12-29T03:43:47;11.20;67.70
20568;DHT22;10442;49.932;11.592;2022-12-29T03:46:14;11.20;67.50
20568;DHT22;10442;49.932;11.592;2022-12-29T03:48:42;11.20;67.40
20568;DHT22;10442;49.932;11.592;2022-12-29T03:51:09;11.20;67.30
20568;DHT22;10442;49.932;11.592;2022-12-29T03:53:37;11.30;67.00
20568;DHT22;10442;49.932;11.592;2022-12-29T03:56:05;11.30;66.80
20568;DHT22;10442;49.932;11.592;2022-12-29T03:58:34;11.40;67.00
20568;DHT22;10442;49.932;11.592;2022-12-29T04:01:10;11.50;66.80
20568;DHT22;10442;49.932;11.592;2022-12-29T04:03:38;11.60;66.50
20568;DHT22;10442;49.932;11.592;2022-12-29T04:06:07;11.60;66.30
20568;DHT22;10442;49.932;11.592;2022-12-29T04:08:43;11.60;66.10
20568;DHT22;10442;49.932;11.592;2022-12-29T04:11:11;11.70;66.10
20568;DHT22;10442;49.932;11.592;2022-12-29T04:13:39;11.70;65.90
20568;DHT22;10442;49.932;11.592;2022-12-29T04:16:10;11.80;66.00
20568;DHT22;10442;49.932;11.592;2022-12-29T04:18:37;11.80;65.90
20568;DHT22;10442;49.932;11.592;2022-12-29T04:21:05;11.90;66.00
20568;DHT22;10442;49.932;11.592;2022-12-29T04:23:38;11.90;65.80
20568;DHT22;10442;49.932;11.592;2022-12-29T04:26:08;11.90;65.80
20568;DHT22;10442;49.932;11.592;2022-12-29T04:29:02;12.00;65.60
20568;DHT22;10442;49.932;11.592;2022-12-29T04:31:44;12.00;65.30
20568;DHT22;10442;49.932;11.592;2022-12-29T04:34:11;12.00;65.10
20568;DHT22;10442;49.932;11.592;2022-12-29T04:36:39;12.00;65.10
20568;DHT22;10442;49.932;11.592;2022-12-29T04:39:07;12.00;65.10
20568;DHT22;10442;49.932;11.592;2022-12-29T04:41:35;12.00;65.10
20568;DHT22;10442;49.932;11.592;2022-12-29T04:44:05;12.10;65.00
20568;DHT22;10442;49.932;11.592;2022-12-29T04:46:51;12.00;64.60
20568;DHT22;10442;49.932;11.592;2022-12-29T04:49:39;12.00;65.00
20568;DHT22;10442;49.932;11.592;2022-12-29T04:52:22;12.00;65.20
20568;DHT22;10442;49.932;11.592;2022-12-29T04:54:51;12.00;65.10
20568;DHT22;10442;49.932;11.592;2022-12-29T04:57:20;12.00;65.00
20568;DHT22;10442;49.932;11.592;2022-12-29T04:59:52;12.00;66.00
20568;DHT22;10442;49.932;11.592;2022-12-29T05:02:19;11.90;65.10
20568;DHT22;10442;49.932;11.592;2022-12-29T05:04:49;11.90;65.10
20568;DHT22;10442;49.932;11.592;2022-12-29T05:07:17;11.80;65.20
20568;DHT22;10442;49.932;11.592;2022-12-29T05:09:45;11.80;65.20
20568;DHT22;10442;49.932;11.592;2022-12-29T05:12:12;11.70;65.30
20568;DHT22;10442;49.932;11.592;2022-12-29T05:14:48;11.60;65.30
20568;DHT22;10442;49.932;11.592;2022-12-29T05:17:15;11.60;65.30
20568;DHT22;10442;49.932;11.592;2022-12-29T05:19:43;11.60;65.10
20568;DHT22;10442;49.932;11.592;2022-12-29T05:22:11;11.50;65.00
20568;DHT22;10442;49.932;11.592;2022-12-29T05:24:39;11.40;65.20
20568;DHT22;10442;49.932;11.592;2022-12-29T05:27:08;11.40;65.40
20568;DHT22;10442;49.932;11.592;2022-12-29T05:29:54;11.30;65.60
20568;DHT22;10442;49.932;11.592;2022-12-29T05:32:22;11.30;65.70
20568;DHT22;10442;49.932;11.592;2022-12-29T05:34:49;11.30;65.80
20568;DHT22;10442;49.932;11.592;2022-12-29T05:37:18;11.20;65.80
20568;DHT22;10442;49.932;11.592;2022-12-29T05:39:45;11.20;65.80
20568;DHT22;10442;49.932;11.592;2022-12-29T05:42:13;11.20;65.90
20568;DHT22;10442;49.932;11.592;2022-12-29T05:45:08;11.20;65.90
20568;DHT22;10442;49.932;11.592;2022-12-29T05:48:14;11.10;66.50
20568;DHT22;10442;49.932;11.592;2022-12-29T05:51:03;11.00;65.80
20568;DHT22;10442;49.932;11.592;2022-12-29T05:53:46;11.00;65.90
20568;DHT22;10442;49.932;11.592;2022-12-29T05:56:13;10.90;65.80
20568;DHT22;10442;49.932;11.592;2022-12-29T05:58:41;10.90;65.80
20568;DHT22;10442;49.932;11.592;2022-12-29T06:01:08;10.90;65.80
20568;DHT22;10442;49.932;11.592;2022-12-29T06:03:36;10.90;65.70
20568;DHT22;10442;49.932;11.592;2022-12-29T06:06:12;10.90;65.60
20568;DHT22;10442;49.932;11.592;2022-12-29T06:08:40;10.80;65.50
20568;DHT22;10442;49.932;11.592;2022-12-29T06:11:09;10.80;65.50
20568;DHT22;10442;49.932;11.592;2022-12-29T06:13:38;10.70;65.40
20568;DHT22;10442;49.932;11.592;2022-12-29T06:16:06;10.70;65.50
20568;DHT22;10442;49.932;11.592;2022-12-29T06:18:34;10.60;65.50
20568;DHT22;10442;49.932;11.592;2022-12-29T06:21:04;10.50;65.50
20568;DHT22;10442;49.932;11.592;2022-12-29T06:23:32;10.50;65.70
20568;DHT22;10442;49.932;11.592;2022-12-29T06:25:59;10.40;65.80
20568;DHT22;10442;49.932;11.592;2022-12-29T06:28:26;10.30;65.80
20568;DHT22;10442;49.932;11.592;2022-12-29T06:30:54;10.20;65.90
20568;DHT22;10442;49.932;11.592;2022-12-29T06:33:21;10.20;66.00
20568;DHT22;10442;49.932;11.592;2022-12-29T06:35:50;10.10;66.20
20568;DHT22;10442;49.932;11.592;2022-12-29T06:38:17;10.00;66.50
20568;DHT22;10442;49.932;11.592;2022-12-29T06:40:45;10.00;66.70
20568;DHT22;10442;49.932;11.592;2022-12-29T06:43:41;9.90;66.90
20568;DHT22;10442;49.932;11.592;2022-12-29T06:46:18;9.90;67.10
20568;DHT22;10442;49.932;11.592;2022-12-29T06:48:46;9.90;67.20
20568;DHT22;10442;49.932;11.592;2022-12-29T06:51:13;9.90;67.40
20568;DHT22;10442;49.932;11.592;2022-12-29T06:53:41;9.90;68.10
20568;DHT22;10442;49.932;11.592;2022-12-29T06:56:08;10.00;67.20
20568;DHT22;10442;49.932;11.592;2022-12-29T06:58:35;10.00;67.20
20568;DHT22;10442;49.932;11.592;2022-12-29T07:01:03;10.10;67.30
20568;DHT22;10442;49.932;11.592;2022-12-29T07:03:31;10.10;67.00
20568;DHT22;10442;49.932;11.592;2022-12-29T07:05:58;10.20;67.00
20568;DHT22;10442;49.932;11.592;2022-12-29T07:08:26;10.20;66.90
20568;DHT22;10442;49.932;11.592;2022-12-29T07:10:53;10.30;66.90
20568;DHT22;10442;49.932;11.592;2022-12-29T07:13:20;10.30;66.70
20568;DHT22;10442;49.932;11.592;2022-12-29T07:15:48;10.40;66.70
20568;DHT22;10442;49.932;11.592;2022-12-29T07:18:15;10.40;66.70
20568;DHT22;10442;49.932;11.592;2022-12-29T07:20:43;10.40;66.60
20568;DHT22;10442;49.932;11.592;2022-12-29T07:23:11;10.50;66.50
20568;DHT22;10442;49.932;11.592;2022-12-29T07:25:38;10.50;66.40
20568;DHT22;10442;49.932;11.592;2022-12-29T07:28:07;10.50;66.40
20568;DHT22;10442;49.932;11.592;2022-12-29T07:30:37;10.50;66.30
20568;DHT22;10442;49.932;11.592;2022-12-29T07:33:05;10.50;66.10
20568;DHT22;10442;49.932;11.592;2022-12-29T07:35:35;10.50;66.00
20568;DHT22;10442;49.932;11.592;2022-12-29T07:38:03;10.50;65.90
20568;DHT22;10442;49.932;11.592;2022-12-29T07:40:30;10.50;65.90
20568;DHT22;10442;49.932;11.592;2022-12-29T07:42:59;10.50;65.80
20568;DHT22;10442;49.932;11.592;2022-12-29T07:45:33;10.50;66.00
20568;DHT22;10442;49.932;11.592;2022-12-29T07:48:08;10.50;66.00
20568;DHT22;10442;49.932;11.592;2022-12-29T07:50:36;10.50;65.80
20568;DHT22;10442;49.932;11.592;2022-12-29T07:53:04;10.50;65.70
20568;DHT22;10442;49.932;11.592;2022-12-29T07:55:32;10.50;65.80
20568;DHT22;10442;49.932;11.592;2022-12-29T07:57:59;10.40;65.70
20568;DHT22;10442;49.932;11.592;2022-12-29T08:00:27;10.40;65.90
20568;DHT22;10442;49.932;11.592;2022-12-29T08:02:56;10.40;65.90
20568;DHT22;10442;49.932;11.592;2022-12-29T08:05:24;10.40;66.10
20568;DHT22;10442;49.932;11.592;2022-12-29T08:07:52;10.40;66.20
20568;DHT22;10442;49.932;11.592;2022-12-29T08:10:19;10.40;66.30
20568;DHT22;10442;49.932;11.592;2022-12-29T08:12:46;10.40;66.40
20568;DHT22;10442;49.932;11.592;2022-12-29T08:15:14;10.50;66.30
20568;DHT22;10442;49.932;11.592;2022-12-29T08:17:41;10.50;66.40
20568;DHT22;10442;49.932;11.592;2022-12-29T08:20:10;10.50;66.40
20568;DHT22;10442;49.932;11.592;2022-12-29T08:22:38;10.60;66.60
20568;DHT22;10442;49.932;11.592;2022-12-29T08:25:05;10.60;66.80
20568;DHT22;10442;49.932;11.592;2022-12-29T08:27:33;10.70;67.20
20568;DHT22;10442;49.932;11.592;2022-12-29T08:30:00;10.80;67.50
20568;DHT22;10442;49.932;11.592;2022-12-29T08:32:28;10.80;67.30
20568;DHT22;10442;49.932;11.592;2022-12-29T08:34:55;10.90;67.50
20568;DHT22;10442;49.932;11.592;2022-12-29T08:37:23;11.10;67.60
20568;DHT22;10442;49.932;11.592;2022-12-29T08:39:57;11.20;67.50
20568;DHT22;10442;49.932;11.592;2022-12-29T08:42:26;11.20;67.40
20568;DHT22;10442;49.932;11.592;2022-12-29T08:44:59;11.40;66.90
20568;DHT22;10442;49.932;11.592;2022-12-29T08:47:26;11.50;66.60
20568;DHT22;10442;49.932;11.592;2022-12-29T08:49:54;11.60;66.40
20568;DHT22;10442;49.932;11.592;2022-12-29T08:52:21;11.70;66.20
20568;DHT22;10442;49.932;11.592;2022-12-29T08:54:50;11.90;65.80
20568;DHT22;10442;49.932;11.592;2022-12-29T08:57:17;12.00;65.40
20568;DHT22;10442;49.932;11.592;2022-12-29T09:00:10;12.10;65.20
20568;DHT22;10442;49.932;11.592;2022-12-29T09:02:37;12.20;64.90
20568;DHT22;10442;49.932;11.592;2022-12-29T09:05:05;12.30;64.50
20568;DHT22;10442;49.932;11.592;2022-12-29T09:07:33;12.40;64.50
20568;DHT22;10442;49.932;11.592;2022-12-29T09:10:01;12.50;64.10
20568;DHT22;10442;49.932;11.592;2022-12-29T09:12:28;12.60;64.20
20568;DHT22;10442;49.932;11.592;2022-12-29T09:15:03;12.60;63.80
20568;DHT22;10442;49.932;11.592;2022-12-29T09:17:30;12.70;63.70
20568;DHT22;10442;49.932;11.592;2022-12-29T09:20:16;12.80;63.20
20568;DHT22;10442;49.932;11.592;2022-12-29T09:22:44;12.80;63.00
20568;DHT22;10442;49.932;11.592;2022-12-29T09:25:11;12.90;62.90
20568;DHT22;10442;49.932;11.592;2022-12-29T09:27:39;12.90;62.70
20568;DHT22;10442;49.932;11.592;2022-12-29T09:30:10;13.00;63.00
20568;DHT22;10442;49.932;11.592;2022-12-29T09:32:38;13.00;63.00
20568;DHT22;10442;49.932;11.592;2022-12-29T09:35:12;13.10;62.40
20568;DHT22;10442;49.932;11.592;2022-12-29T09:37:40;13.10;62.10
20568;DHT22;10442;49.932;11.592;2022-12-29T09:40:09;13.20;62.10
20568;DHT22;10442;49.932;11.592;2022-12-29T09:43:09;13.20;61.90
20568;DHT22;10442;49.932;11.592;2022-12-29T09:45:45;13.30;61.40
20568;DHT22;10442;49.932;11.592;2022-12-29T09:48:18;13.30;61.80
20568;DHT22;10442;49.932;11.592;2022-12-29T09:50:50;13.40;61.90
20568;DHT22;10442;49.932;11.592;2022-12-29T09:53:36;13.40;61.50
20568;DHT22;10442;49.932;11.592;2022-12-29T09:56:13;13.50;61.30
20568;DHT22;10442;49.932;11.592;2022-12-29T09:58:48;13.50;61.20
20568;DHT22;10442;49.932;11.592;2022-12-29T10:01:28;13.50;61.00
20568;DHT22;10442;49.932;11.592;2022-12-29T10:03:58;13.50;60.70
20568;DHT22;10442;49.932;11.592;2022-12-29T10:09:50;13.60;60.40
20568;DHT22;10442;49.932;11.592;2022-12-29T10:18:48;13.90;60.60
20568;DHT22;10442;49.932;11.592;2022-12-29T10:21:33;14.00;60.10
20568;DHT22;10442;49.932;11.592;2022-12-29T10:24:07;14.00;59.60
20568;DHT22;10442;49.932;11.592;2022-12-29T10:26:40;14.10;59.70
20568;DHT22;10442;49.932;11.592;2022-12-29T10:29:28;14.20;59.70
20568;DHT22;10442;49.932;11.592;2022-12-29T10:32:09;14.20;59.30
20568;DHT22;10442;49.932;11.592;2022-12-29T10:34:45;14.30;59.40
20568;DHT22;10442;49.932;11.592;2022-12-29T10:39:54;14.50;59.20
20568;DHT22;10442;49.932;11.592;2022-12-29T10:44:56;14.60;58.90
20568;DHT22;10442;49.932;11.592;2022-12-29T10:47:28;14.70;59.60
20568;DHT22;10442;49.932;11.592;2022-12-29T10:49:56;14.80;58.90
20568;DHT22;10442;49.932;11.592;2022-12-29T10:52:27;14.90;58.40
20568;DHT22;10442;49.932;11.592;2022-12-29T10:55:13;15.00;58.60
20568;DHT22;10442;49.932;11.592;2022-12-29T10:57:46;15.00;58.10
20568;DHT22;10442;49.932;11.592;2022-12-29T11:00:17;15.20;58.20
20568;DHT22;10442;49.932;11.592;2022-12-29T11:08:55;15.40;57.60
20568;DHT22;10442;49.932;11.592;2022-12-29T11:11:26;15.40;57.00
20568;DHT22;10442;49.932;11.592;2022-12-29T11:14:07;15.40;57.40
20568;DHT22;10442;49.932;11.592;2022-12-29T11:16:36;15.50;57.10
20568;DHT22;10442;49.932;11.592;2022-12-29T11:19:03;15.50;57.10
20568;DHT22;10442;49.932;11.592;2022-12-29T11:21:36;15.60;57.10
20568;DHT22;10442;49.932;11.592;2022-12-29T11:24:29;15.60;56.70
20568;DHT22;10442;49.932;11.592;2022-12-29T11:27:18;15.60;56.90
20568;DHT22;10442;49.932;11.592;2022-12-29T11:29:48;15.60;56.90
20568;DHT22;10442;49.932;11.592;2022-12-29T11:32:25;15.60;56.80
20568;DHT22;10442;49.932;11.592;2022-12-29T11:34:56;15.50;56.80
20568;DHT22;10442;49.932;11.592;2022-12-29T11:37:39;15.50;57.00
20568;DHT22;10442;49.932;11.592;2022-12-29T11:40:18;15.50;57.00
20568;DHT22;10442;49.932;11.592;2022-12-29T11:42:58;15.50;56.80
20568;DHT22;10442;49.932;11.592;2022-12-29T11:45:33;15.40;57.10
20568;DHT22;10442;49.932;11.592;2022-12-29T11:48:10;15.40;57.20
20568;DHT22;10442;49.932;11.592;2022-12-29T11:50:42;15.40;57.00
20568;DHT22;10442;49.932;11.592;2022-12-29T11:53:20;15.40;57.20
20568;DHT22;10442;49.932;11.592;2022-12-29T11:55:54;15.30;57.40
20568;DHT22;10442;49.932;11.592;2022-12-29T11:58:31;15.30;57.80
20568;DHT22;10442;49.932;11.592;2022-12-29T12:04:05;15.20;58.00
20568;DHT22;10442;49.932;11.592;2022-12-29T12:06:38;15.20;58.00
20568;DHT22;10442;49.932;11.592;2022-12-29T12:09:16;15.20;58.00
20568;DHT22;10442;49.932;11.592;2022-12-29T12:11:46;15.10;58.30
20568;DHT22;10442;49.932;11.592;2022-12-29T12:14:19;15.10;58.80
20568;DHT22;10442;49.932;11.592;2022-12-29T12:17:35;15.10;58.80
20568;DHT22;10442;49.932;11.592;2022-12-29T12:20:19;15.00;59.10
20568;DHT22;10442;49.932;11.592;2022-12-29T12:22:58;15.00;59.20
20568;DHT22;10442;49.932;11.592;2022-12-29T12:25:36;14.90;59.20
20568;DHT22;10442;49.932;11.592;2022-12-29T12:28:11;14.90;59.00
20568;DHT22;10442;49.932;11.592;2022-12-29T12:30:44;14.80;59.30
20568;DHT22;10442;49.932;11.592;2022-12-29T12:33:26;14.80;59.10
20568;DHT22;10442;49.932;11.592;2022-12-29T12:36:23;14.80;59.20
20568;DHT22;10442;49.932;11.592;2022-12-29T12:45:35;14.80;59.40
20568;DHT22;10442;49.932;11.592;2022-12-29T12:47:53;14.70;59.40
20568;DHT22;10442;49.932;11.592;2022-12-29T12:56:23;14.80;59.70
20568;DHT22;10442;49.932;11.592;2022-12-29T12:59:30;14.70;59.70
20568;DHT22;10442;49.932;11.592;2022-12-29T13:02:22;14.80;59.90
20568;DHT22;10442;49.932;11.592;2022-12-29T13:05:16;14.70;59.70
20568;DHT22;10442;49.932;11.592;2022-12-29T13:10:36;14.70;60.00
20568;DHT22;10442;49.932;11.592;2022-12-29T13:13:33;14.70;60.00
20568;DHT22;10442;49.932;11.592;2022-12-29T13:22:16;14.70;60.00
20568;DHT22;10442;49.932;11.592;2022-12-29T13:25:13;14.60;60.00
20568;DHT22;10442;49.932;11.592;2022-12-29T13:33:28;14.60;60.10
20568;DHT22;10442;49.932;11.592;2022-12-29T13:36:13;14.60;59.90
20568;DHT22;10442;49.932;11.592;2022-12-29T13:38:46;14.60;60.00
20568;DHT22;10442;49.932;11.592;2022-12-29T13:41:30;14.60;60.90
20568;DHT22;10442;49.932;11.592;2022-12-29T13:44:00;14.60;60.20
20568;DHT22;10442;49.932;11.592;2022-12-29T13:46:34;14.60;60.20
20568;DHT22;10442;49.932;11.592;2022-12-29T13:49:08;14.50;60.20
20568;DHT22;10442;49.932;11.592;2022-12-29T13:51:47;14.50;60.20
20568;DHT22;10442;49.932;11.592;2022-12-29T13:54:22;14.50;60.40
20568;DHT22;10442;49.932;11.592;2022-12-29T13:59:54;14.40;60.50
20568;DHT22;10442;49.932;11.592;2022-12-29T14:05:33;14.40;60.50
20568;DHT22;10442;49.932;11.592;2022-12-29T14:08:04;14.30;60.50
20568;DHT22;10442;49.932;11.592;2022-12-29T14:10:48;14.30;60.80
20568;DHT22;10442;49.932;11.592;2022-12-29T14:13:22;14.30;60.90
20568;DHT22;10442;49.932;11.592;2022-12-29T14:15:55;14.30;61.00
20568;DHT22;10442;49.932;11.592;2022-12-29T14:18:31;14.30;61.20
20568;DHT22;10442;49.932;11.592;2022-12-29T14:21:04;14.30;61.40
20568;DHT22;10442;49.932;11.592;2022-12-29T14:23:42;14.30;61.50
20568;DHT22;10442;49.932;11.592;2022-12-29T14:31:59;14.20;61.80
20568;DHT22;10442;49.932;11.592;2022-12-29T14:34:29;14.20;61.90
20568;DHT22;10442;49.932;11.592;2022-12-29T14:37:01;14.20;62.00
20568;DHT22;10442;49.932;11.592;2022-12-29T14:39:41;14.20;62.00
20568;DHT22;10442;49.932;11.592;2022-12-29T14:45:24;14.10;62.20
20568;DHT22;10442;49.932;11.592;2022-12-29T14:47:53;14.10;62.20
20568;DHT22;10442;49.932;11.592;2022-12-29T14:50:26;14.10;62.10
20568;DHT22;10442;49.932;11.592;2022-12-29T14:53:03;14.10;62.20
20568;DHT22;10442;49.932;11.592;2022-12-29T14:55:44;14.10;62.40
20568;DHT22;10442;49.932;11.592;2022-12-29T14:58:27;14.10;62.50
20568;DHT22;10442;49.932;11.592;2022-12-29T15:00:55;14.00;62.40
20568;DHT22;10442;49.932;11.592;2022-12-29T15:03:28;14.00;62.60
20568;DHT22;10442;49.932;11.592;2022-12-29T15:06:07;14.00;62.70
20568;DHT22;10442;49.932;11.592;2022-12-29T15:11:49;13.90;63.10
20568;DHT22;10442;49.932;11.592;2022-12-29T15:14:39;13.90;63.20
20568;DHT22;10442;49.932;11.592;2022-12-29T15:17:42;14.00;63.00
20568;DHT22;10442;49.932;11.592;2022-12-29T15:22:57;13.90;63.00
20568;DHT22;10442;49.932;11.592;2022-12-29T15:25:26;13.90;63.10
20568;DHT22;10442;49.932;11.592;2022-12-29T15:27:57;13.90;63.00
20568;DHT22;10442;49.932;11.592;2022-12-29T15:30:26;13.90;63.00
20568;DHT22;10442;49.932;11.592;2022-12-29T15:32:54;13.90;63.00
20568;DHT22;10442;49.932;11.592;2022-12-29T15:35:36;13.90;63.40
20568;DHT22;10442;49.932;11.592;2022-12-29T15:38:15;13.80;63.40
20568;DHT22;10442;49.932;11.592;2022-12-29T15:40:44;13.80;63.40
20568;DHT22;10442;49.932;11.592;2022-12-29T15:43:16;13.80;63.50
20568;DHT22;10442;49.932;11.592;2022-12-29T15:45:46;13.80;63.60
20568;DHT22;10442;49.932;11.592;2022-12-29T15:48:18;13.80;63.70
20568;DHT22;10442;49.932;11.592;2022-12-29T15:50:46;13.80;63.90
20568;DHT22;10442;49.932;11.592;2022-12-29T15:53:24;13.70;64.00
20568;DHT22;10442;49.932;11.592;2022-12-29T15:56:01;13.70;64.10
20568;DHT22;10442;49.932;11.592;2022-12-29T15:58:40;13.70;64.30
20568;DHT22;10442;49.932;11.592;2022-12-29T16:01:35;13.60;64.30
20568;DHT22;10442;49.932;11.592;2022-12-29T16:04:06;13.60;64.50
20568;DHT22;10442;49.932;11.592;2022-12-29T16:06:39;13.60;64.60
20568;DHT22;10442;49.932;11.592;2022-12-29T16:09:17;13.50;64.80
20568;DHT22;10442;49.932;11.592;2022-12-29T16:11:49;13.50;65.00
20568;DHT22;10442;49.932;11.592;2022-12-29T16:15:03;13.40;65.20
20568;DHT22;10442;49.932;11.592;2022-12-29T16:17:24;13.40;65.30
20568;DHT22;10442;49.932;11.592;2022-12-29T16:19:59;13.40;65.50
20568;DHT22;10442;49.932;11.592;2022-12-29T16:22:36;13.40;65.60
20568;DHT22;10442;49.932;11.592;2022-12-29T16:25:28;13.40;65.60
20568;DHT22;10442;49.932;11.592;2022-12-29T16:27:56;13.40;65.80
20568;DHT22;10442;49.932;11.592;2022-12-29T16:30:25;13.40;65.80
20568;DHT22;10442;49.932;11.592;2022-12-29T16:33:02;13.40;65.80
20568;DHT22;10442;49.932;11.592;2022-12-29T16:38:16;13.40;65.90
20568;DHT22;10442;49.932;11.592;2022-12-29T16:40:58;13.50;66.10
20568;DHT22;10442;49.932;11.592;2022-12-29T16:43:31;13.40;65.90
20568;DHT22;10442;49.932;11.592;2022-12-29T16:48:28;13.40;66.10
20568;DHT22;10442;49.932;11.592;2022-12-29T16:51:03;13.40;66.20
20568;DHT22;10442;49.932;11.592;2022-12-29T16:53:35;13.40;66.30
20568;DHT22;10442;49.932;11.592;2022-12-29T16:56:08;13.40;66.20
20568;DHT22;10442;49.932;11.592;2022-12-29T16:58:43;13.40;66.50
20568;DHT22;10442;49.932;11.592;2022-12-29T17:01:15;13.40;66.60
20568;DHT22;10442;49.932;11.592;2022-12-29T17:03:57;13.40;66.80
20568;DHT22;10442;49.932;11.592;2022-12-29T17:06:25;13.40;66.90
20568;DHT22;10442;49.932;11.592;2022-12-29T17:08:53;13.40;66.80
20568;DHT22;10442;49.932;11.592;2022-12-29T17:11:29;13.40;66.90
20568;DHT22;10442;49.932;11.592;2022-12-29T17:14:48;13.40;67.10
20568;DHT22;10442;49.932;11.592;2022-12-29T17:19:53;13.40;67.00
20568;DHT22;10442;49.932;11.592;2022-12-29T17:22:24;13.40;67.30
20568;DHT22;10442;49.932;11.592;2022-12-29T17:24:57;13.40;67.50
20568;DHT22;10442;49.932;11.592;2022-12-29T17:27:32;13.40;67.90
20568;DHT22;10442;49.932;11.592;2022-12-29T17:30:04;13.30;68.50
20568;DHT22;10442;49.932;11.592;2022-12-29T17:32:32;13.30;70.00
20568;DHT22;10442;49.932;11.592;2022-12-29T17:35:00;13.20;70.50
20568;DHT22;10442;49.932;11.592;2022-12-29T17:37:36;13.10;70.40
20568;DHT22;10442;49.932;11.592;2022-12-29T17:40:06;13.00;70.70
20568;DHT22;10442;49.932;11.592;2022-12-29T17:42:37;12.90;70.60
20568;DHT22;10442;49.932;11.592;2022-12-29T17:45:16;12.80;70.90
20568;DHT22;10442;49.932;11.592;2022-12-29T17:47:43;12.70;70.90
20568;DHT22;10442;49.932;11.592;2022-12-29T17:50:13;12.60;70.80
20568;DHT22;10442;49.932;11.592;2022-12-29T17:52:42;12.60;71.20